Panamax Christina — 5BQS4 — position and weather

sailwx.info

Track history (hours):
 
Tides and Currents Weather Stations Pressure Air Temp Water Temp Dewpoint Dewpoint Depression Visibility Wind Speed Wind Dir Waves Ship Positions

Panamax Christina

Last reported at 2018-Feb-12 07:33 UTC. Time now 2018-Feb-23 12:48 UTC.
Position N 49°43' W 003°50'.
Warning: this ship's position is 11 days out of date.

Length 229 m; draft 8.8 m.

Type: Cargo ship. MMSI: 212921000.

Date/timePositionNaut miles runAvg speedWind from/ knotsBaromVisibWave heightAir tempDewpointWater temp
2018-Feb-12 07:33N 49°43' W 003°50'011.4
2018-Feb-12 07:30N 49°43' W 003°49'811.2
2018-Feb-12 06:46N 49°47' W 003°37'311.0
2018-Feb-12 06:30N 49°48' W 003°34'610.9
2018-Feb-12 05:59N 49°51' W 003°26'510.7
2018-Feb-12 05:30N 49°53' W 003°18'510.4
2018-Feb-12 05:01N 49°55' W 003°11'510.3
2018-Feb-12 04:30N 49°57' W 003°04'510.3
2018-Feb-12 04:01N 49°60' W 002°57'510.3
2018-Feb-12 03:30N 50°01' W 002°49'510.6
2018-Feb-12 03:01N 50°03' W 002°41'510.9
2018-Feb-12 02:30N 50°04' W 002°33'2212.0
2018-Feb-12 00:41N 50°10' W 002°00'212.8
2018-Feb-12 00:30N 50°10' W 001°57'713.0
2018-Feb-12 00:00N 50°12' W 001°47'713.2
2018-Feb-11 23:30N 50°14' W 001°37'613.1
2018-Feb-11 23:00N 50°16' W 001°27'712.9
2018-Feb-11 22:30N 50°17' W 001°17'1911.9
2018-Feb-11 20:53N 50°22' W 000°48'411.0
2018-Feb-11 20:29N 50°23' W 000°42'510.7
2018-Feb-11 20:00N 50°25' W 000°34'510.3
2018-Feb-11 19:30N 50°26' W 000°26'510.0
2018-Feb-11 19:00N 50°27' W 000°19'5 9.7
2018-Feb-11 18:30N 50°29' W 000°11'5 9.6
2018-Feb-11 18:00N 50°30' W 000°04'5 9.3
2018-Feb-11 17:30N 50°31' E 000°03'5 9.7
2018-Feb-11 17:00N 50°32' E 000°10'5 9.8
2018-Feb-11 16:30N 50°34' E 000°18'510.0
2018-Feb-11 16:00N 50°35' E 000°25'510.1
2018-Feb-11 15:30N 50°36' E 000°33'510.4
2018-Feb-11 15:00N 50°39' E 000°40'611.1
2018-Feb-11 14:30N 50°42' E 000°48'611.1
2018-Feb-11 14:00N 50°45' E 000°55'611.0
2018-Feb-11 13:30N 50°47' E 001°03'611.1
2018-Feb-11 13:01N 50°50' E 001°10'611.1
2018-Feb-11 12:29N 50°54' E 001°17'510.9
2018-Feb-11 12:00N 50°58' E 001°22'510.4
2018-Feb-11 11:31N 51°02' E 001°28'5 9.6
2018-Feb-11 11:00N 51°06' E 001°33'5 9.2
2018-Feb-11 10:30N 51°09' E 001°38'5 9.4
2018-Feb-11 10:01N 51°12' E 001°44'5 9.5
2018-Feb-11 09:31N 51°16' E 001°48'5 9.8
2018-Feb-11 09:00N 51°20' E 001°52'510.1
2018-Feb-11 08:30N 51°25' E 001°56'510.3
2018-Feb-11 08:00N 51°29' E 002°01'510.5
2018-Feb-11 07:31N 51°33' E 002°07'510.6
2018-Feb-11 07:01N 51°36' E 002°13'610.9
2018-Feb-11 06:30N 51°40' E 002°19'511.0
2018-Feb-11 06:01N 51°44' E 002°25'611.1
2018-Feb-11 05:28N 51°49' E 002°32'42 9.2
2018-Feb-11 00:52N 52°04' E 003°36'4 9.8
2018-Feb-11 00:30N 52°03' E 003°42'510.2
2018-Feb-11 00:00N 52°03' E 003°50'4 8.4
2018-Feb-10 23:30N 52°01' E 003°57'611.1
2018-Feb-10 23:00N 51°59' E 004°05'1 3.0
2018-Feb-10 22:30N 51°58' E 004°07'0 0.0
2018-Feb-10 21:59N 51°58' E 004°07'0 0.0
2018-Feb-10 21:29N 51°58' E 004°07'0 0.0
2018-Feb-10 20:59N 51°58' E 004°07'0 0.0
2018-Feb-10 20:29N 51°58' E 004°07'0 0.0
2018-Feb-10 19:59N 51°58' E 004°07'0 0.0
2018-Feb-10 19:29N 51°58' E 004°07'0 0.0
2018-Feb-10 18:59N 51°58' E 004°07'0 0.0
2018-Feb-10 18:29N 51°58' E 004°07'0 0.0
2018-Feb-10 17:59N 51°58' E 004°07'0 0.0
2018-Feb-10 17:29N 51°58' E 004°07'0 0.0
2018-Feb-10 16:59N 51°58' E 004°07'0 0.0
2018-Feb-10 16:29N 51°58' E 004°07'0 0.0
2018-Feb-10 15:59N 51°58' E 004°07'0 0.0
2018-Feb-10 15:29N 51°58' E 004°07'0 0.0
2018-Feb-10 14:59N 51°58' E 004°07'0 0.0
2018-Feb-10 14:29N 51°58' E 004°07'0 0.0
2018-Feb-10 13:59N 51°58' E 004°07'0 0.0
2018-Feb-10 13:29N 51°58' E 004°07'0 0.0
2018-Feb-10 12:59N 51°58' E 004°07'0 0.0
2018-Feb-10 12:29N 51°58' E 004°07'0 0.0
2018-Feb-10 11:59N 51°58' E 004°07'0 0.0
2018-Feb-10 11:29N 51°58' E 004°07'0 0.0
2018-Feb-10 10:59N 51°58' E 004°07'0 0.0
2018-Feb-10 10:29N 51°58' E 004°07'0 0.0
2018-Feb-10 09:59N 51°58' E 004°07'0 0.0
2018-Feb-10 09:29N 51°58' E 004°07'0 0.0
2018-Feb-10 08:59N 51°58' E 004°07'0 0.0
2018-Feb-10 08:29N 51°58' E 004°07'0 0.0
2018-Feb-10 07:59N 51°58' E 004°07'0 0.0
2018-Feb-10 07:29N 51°58' E 004°07'0 0.0
2018-Feb-10 06:59N 51°58' E 004°07'0 0.0
2018-Feb-10 06:29N 51°58' E 004°07'0 0.0
2018-Feb-10 05:59N 51°58' E 004°07'0 0.0
2018-Feb-10 05:29N 51°58' E 004°07'0 0.0
2018-Feb-10 04:59N 51°58' E 004°07'0 0.0
2018-Feb-10 04:29N 51°58' E 004°07'0 0.0
2018-Feb-10 03:59N 51°58' E 004°07'0 0.0
2018-Feb-10 03:29N 51°58' E 004°07'0 0.0
2018-Feb-10 02:59N 51°58' E 004°07'0 0.0
2018-Feb-10 02:29N 51°58' E 004°07'0 0.0
2018-Feb-10 01:59N 51°58' E 004°07'0 0.0
2018-Feb-10 01:29N 51°58' E 004°07'0 0.0
2018-Feb-10 00:59N 51°58' E 004°07'0 0.0
2018-Feb-10 00:29N 51°58' E 004°07'0 0.0
2018-Feb-09 23:59N 51°58' E 004°07'0 0.0
2018-Feb-09 23:29N 51°58' E 004°07'0 0.0
2018-Feb-09 22:59N 51°58' E 004°07'0 0.0
2018-Feb-09 22:44N 51°58' E 004°07'1 0.0
2018-Feb-08 01:29N 51°58' E 004°08'0 0.0
2018-Feb-08 00:59N 51°58' E 004°08'0 0.0
2018-Feb-08 00:29N 51°58' E 004°08'0 0.0
2018-Feb-07 23:59N 51°58' E 004°08'0 0.0
2018-Feb-07 23:29N 51°58' E 004°08'0 0.0
2018-Feb-07 22:59N 51°58' E 004°08'0 0.0
2018-Feb-07 22:29N 51°58' E 004°08'0 0.0
2018-Feb-07 21:59N 51°58' E 004°08'0 0.0
2018-Feb-07 21:29N 51°58' E 004°08'0 0.0
2018-Feb-07 09:29N 51°58' E 004°08'0 0.0
2018-Feb-07 08:59N 51°58' E 004°08'0 0.0
2018-Feb-07 08:29N 51°58' E 004°08'0 0.0
2018-Feb-07 07:59N 51°58' E 004°08'0 0.0
2018-Feb-07 07:29N 51°58' E 004°08'0 0.0
2018-Feb-07 06:59N 51°58' E 004°08'0 0.0
2018-Feb-07 06:29N 51°58' E 004°08'0 0.0
2018-Feb-07 05:59N 51°58' E 004°08'0 0.0
2018-Feb-07 05:29N 51°58' E 004°08'0 0.0
2018-Feb-07 04:59N 51°58' E 004°08'0 0.0
2018-Feb-07 04:29N 51°58' E 004°08'0 0.0
2018-Feb-07 03:56N 51°58' E 004°08'0 0.0
2018-Feb-07 03:29N 51°58' E 004°08'0 0.0
2018-Feb-07 02:59N 51°58' E 004°08'0 0.0
2018-Feb-07 02:29N 51°58' E 004°08'0 0.0
2018-Feb-07 01:59N 51°58' E 004°08'0 0.0
2018-Feb-07 01:29N 51°58' E 004°08'0 0.0
2018-Feb-07 00:59N 51°58' E 004°08'0 0.0
2018-Feb-07 00:29N 51°58' E 004°08'0 0.0
2018-Feb-06 23:59N 51°58' E 004°08'0 0.0
2018-Feb-06 23:29N 51°58' E 004°08'0 0.0
2018-Feb-06 22:59N 51°58' E 004°08'0 0.0
2018-Feb-06 22:29N 51°58' E 004°08'0 0.0
2018-Feb-06 21:59N 51°58' E 004°08'0 0.0
2018-Feb-06 21:29N 51°58' E 004°08'0 0.0
2018-Feb-06 20:59N 51°58' E 004°08'0 0.0
2018-Feb-06 20:29N 51°58' E 004°08'0 0.0
2018-Feb-06 19:59N 51°58' E 004°08'0 0.0
2018-Feb-06 19:29N 51°58' E 004°08'0 0.0
2018-Feb-06 18:59N 51°58' E 004°08'0 0.0
2018-Feb-06 18:29N 51°58' E 004°08'0 0.0
2018-Feb-06 17:59N 51°58' E 004°08'0 0.0
2018-Feb-06 17:29N 51°58' E 004°08'0 0.0
2018-Feb-06 16:59N 51°58' E 004°08'0 0.0
2018-Feb-06 16:29N 51°58' E 004°08'0 0.0
2018-Feb-06 15:59N 51°58' E 004°08'0 0.0
2018-Feb-06 15:29N 51°58' E 004°08'0 0.0
2018-Feb-06 14:59N 51°58' E 004°08'0 0.0
2018-Feb-06 14:29N 51°58' E 004°08'0 0.0
2018-Feb-06 13:59N 51°58' E 004°08'0 0.0
2018-Feb-06 13:29N 51°58' E 004°08'0 0.0
2018-Feb-06 12:59N 51°58' E 004°08'0 0.0
2018-Feb-06 12:29N 51°58' E 004°08'0 0.0
2018-Feb-06 12:00N 51°58' E 004°08'0 0.9
2018-Feb-06 11:30N 51°58' E 004°07'3 6.9
2018-Feb-06 11:00N 51°59' E 004°02'5 9.2
2018-Feb-06 10:30N 52°00' E 003°55'5 9.4
2018-Feb-06 10:00N 52°01' E 003°47'5 9.5
2018-Feb-06 09:30N 52°06' E 003°46'4 8.7
2018-Feb-06 09:00N 52°10' E 003°43'1 1.0
2018-Feb-06 08:29N 52°10' E 003°42'0 0.1
2018-Feb-06 07:59N 52°10' E 003°42'0 0.1
2018-Feb-06 07:05N 52°10' E 003°42'0 0.1
2018-Feb-06 06:59N 52°10' E 003°42'0 0.0
2018-Feb-06 06:29N 52°10' E 003°42'0 0.0
2018-Feb-06 05:47N 52°10' E 003°42'0 0.0
2018-Feb-06 05:02N 52°10' E 003°42'0 0.3
2018-Feb-06 04:41N 52°10' E 003°42'0 0.3
2018-Feb-06 04:29N 52°10' E 003°42'0 0.4
2018-Feb-06 03:59N 52°10' E 003°42'0 0.1
2018-Feb-06 03:26N 52°10' E 003°42'0 0.1
2018-Feb-06 02:59N 52°10' E 003°42'0 0.0
2018-Feb-06 02:29N 52°10' E 003°42'0 0.0
2018-Feb-06 01:59N 52°10' E 003°42'0 0.0
2018-Feb-06 01:29N 52°10' E 003°42'0 0.0
2018-Feb-06 00:59N 52°10' E 003°42'0 0.0
2018-Feb-06 00:29N 52°10' E 003°42'0 0.0
2018-Feb-05 23:59N 52°10' E 003°42'0 0.0
2018-Feb-05 23:26N 52°10' E 003°42'0 0.0
2018-Feb-05 22:56N 52°10' E 003°42'0 0.1
2018-Feb-05 22:26N 52°10' E 003°42'0 0.4
2018-Feb-05 21:59N 52°10' E 003°42'0 0.2
2018-Feb-05 21:23N 52°10' E 003°42'0 0.0
2018-Feb-05 20:41N 52°10' E 003°42'0 0.0
2018-Feb-05 20:26N 52°10' E 003°42'0 0.0
2018-Feb-05 19:56N 52°10' E 003°42'0 0.0
2018-Feb-05 19:26N 52°10' E 003°42'0 0.0
2018-Feb-05 18:56N 52°10' E 003°42'0 0.0
2018-Feb-05 18:29N 52°10' E 003°42'0 0.0
2018-Feb-05 17:17N 52°10' E 003°42'0 0.1
2018-Feb-05 16:59N 52°10' E 003°42'0 0.5
2018-Feb-05 16:29N 52°10' E 003°42'0 0.4
2018-Feb-05 15:50N 52°10' E 003°42'0 0.0
2018-Feb-05 15:29N 52°10' E 003°42'0 0.0
2018-Feb-05 14:59N 52°10' E 003°42'0 0.0
2018-Feb-05 14:29N 52°10' E 003°42'0 0.0
2018-Feb-05 13:59N 52°10' E 003°42'0 0.0
2018-Feb-05 13:29N 52°10' E 003°42'0 0.0
2018-Feb-05 12:59N 52°10' E 003°42'0 0.0
2018-Feb-05 12:29N 52°10' E 003°42'0 0.0
2018-Feb-05 11:56N 52°10' E 003°42'0 0.0
2018-Feb-05 11:29N 52°10' E 003°42'0 0.1
2018-Feb-05 10:59N 52°10' E 003°42'0 0.1
2018-Feb-05 10:29N 52°10' E 003°42'0 0.5
2018-Feb-05 09:59N 52°10' E 003°42'0 0.2
2018-Feb-05 09:20N 52°10' E 003°42'0 0.1
2018-Feb-05 08:56N 52°10' E 003°42'0 0.0
2018-Feb-05 08:29N 52°10' E 003°42'0 0.0
2018-Feb-05 07:59N 52°10' E 003°42'0 0.0
2018-Feb-05 07:26N 52°10' E 003°42'0 0.1
2018-Feb-05 06:56N 52°10' E 003°42'0 0.0
2018-Feb-05 06:29N 52°10' E 003°42'0 0.0
2018-Feb-05 05:23N 52°10' E 003°42'0 0.1
2018-Feb-05 04:50N 52°10' E 003°42'0 0.6
2018-Feb-05 04:29N 52°10' E 003°42'0 0.3
2018-Feb-05 03:59N 52°10' E 003°42'0 0.2
2018-Feb-05 03:26N 52°10' E 003°42'0 0.1
2018-Feb-05 02:53N 52°10' E 003°42'0 0.0
2018-Feb-05 02:29N 52°10' E 003°42'0 0.0
2018-Feb-05 01:59N 52°10' E 003°42'0 0.0
2018-Feb-05 01:29N 52°10' E 003°42'0 0.0
2018-Feb-05 00:59N 52°10' E 003°42'0 0.0
2018-Feb-05 00:29N 52°10' E 003°42'0 0.0
2018-Feb-04 23:59N 52°10' E 003°42'0 0.1
2018-Feb-04 23:29N 52°10' E 003°42'0 0.0
2018-Feb-04 22:53N 52°10' E 003°42'0 0.1
2018-Feb-04 22:29N 52°10' E 003°42'0 0.0
2018-Feb-04 21:59N 52°10' E 003°42'0 0.0
2018-Feb-04 21:29N 52°10' E 003°42'0 0.0
2018-Feb-04 20:59N 52°10' E 003°42'0 0.3
2018-Feb-04 19:59N 52°10' E 003°42'0 0.1
2018-Feb-04 19:17N 52°10' E 003°42'0 0.3
2018-Feb-04 18:47N 52°10' E 003°42'0 0.3
2018-Feb-04 18:26N 52°10' E 003°42'0 0.1
2018-Feb-04 15:26N 52°10' E 003°42'0 0.1
2018-Feb-04 14:56N 52°10' E 003°42'0 0.0
2018-Feb-04 14:29N 52°10' E 003°42'0 0.0
2018-Feb-04 13:59N 52°10' E 003°42'0 0.0
2018-Feb-04 13:29N 52°10' E 003°42'0 0.0
2018-Feb-04 12:56N 52°10' E 003°42'0 0.0
2018-Feb-04 12:29N 52°10' E 003°42'0 0.0
2018-Feb-04 11:59N 52°10' E 003°42'0 0.0
2018-Feb-04 11:29N 52°10' E 003°42'0 0.0
2018-Feb-04 09:56N 52°10' E 003°42'0 0.0
2018-Feb-04 08:59N 52°10' E 003°42'0 0.8
2018-Feb-04 08:25N 52°10' E 003°42'3 6.7
2018-Feb-04 08:01N 52°12' E 003°45'510.3
2018-Feb-04 07:30N 52°17' E 003°47'611.2
2018-Feb-04 07:01N 52°23' E 003°49'511.0
2018-Feb-04 06:31N 52°28' E 003°50'17811.9
2018-Feb-03 15:37N 55°15' E 005°34'212.3
2018-Feb-03 15:29N 55°17' E 005°35'612.3
2018-Feb-03 15:00N 55°22' E 005°38'  
Track history (hours):
 
Tides and Currents Weather Stations Pressure Air Temp Water Temp Dewpoint Dewpoint Depression Visibility Wind Speed Wind Dir Waves Ship Positions

Panamax Christina

Last reported at 2018-Feb-12 07:33 UTC. Time now 2018-Feb-23 12:48 UTC.
Position N 49°43' W 003°50'.
Warning: this ship's position is 11 days out of date.

Length 229 m; draft 8.8 m.

Type: Cargo ship. MMSI: 212921000.

Date/timePositionNaut miles runAvg speedWind from/ knotsBaromVisibWave heightAir tempDewpointWater temp
2018-Feb-12 07:33N 49°43' W 003°50'011.4
2018-Feb-12 07:30N 49°43' W 003°49'811.2
2018-Feb-12 06:46N 49°47' W 003°37'311.0
2018-Feb-12 06:30N 49°48' W 003°34'610.9
2018-Feb-12 05:59N 49°51' W 003°26'510.7
2018-Feb-12 05:30N 49°53' W 003°18'510.4
2018-Feb-12 05:01N 49°55' W 003°11'510.3
2018-Feb-12 04:30N 49°57' W 003°04'510.3
2018-Feb-12 04:01N 49°60' W 002°57'510.3
2018-Feb-12 03:30N 50°01' W 002°49'510.6
2018-Feb-12 03:01N 50°03' W 002°41'510.9
2018-Feb-12 02:30N 50°04' W 002°33'2212.0
2018-Feb-12 00:41N 50°10' W 002°00'212.8
2018-Feb-12 00:30N 50°10' W 001°57'713.0
2018-Feb-12 00:00N 50°12' W 001°47'713.2
2018-Feb-11 23:30N 50°14' W 001°37'613.1
2018-Feb-11 23:00N 50°16' W 001°27'712.9
2018-Feb-11 22:30N 50°17' W 001°17'1911.9
2018-Feb-11 20:53N 50°22' W 000°48'411.0
2018-Feb-11 20:29N 50°23' W 000°42'510.7
2018-Feb-11 20:00N 50°25' W 000°34'510.3
2018-Feb-11 19:30N 50°26' W 000°26'510.0
2018-Feb-11 19:00N 50°27' W 000°19'5 9.7
2018-Feb-11 18:30N 50°29' W 000°11'5 9.6
2018-Feb-11 18:00N 50°30' W 000°04'5 9.3
2018-Feb-11 17:30N 50°31' E 000°03'5 9.7
2018-Feb-11 17:00N 50°32' E 000°10'5 9.8
2018-Feb-11 16:30N 50°34' E 000°18'510.0
2018-Feb-11 16:00N 50°35' E 000°25'510.1
2018-Feb-11 15:30N 50°36' E 000°33'510.4
2018-Feb-11 15:00N 50°39' E 000°40'611.1
2018-Feb-11 14:30N 50°42' E 000°48'611.1
2018-Feb-11 14:00N 50°45' E 000°55'611.0
2018-Feb-11 13:30N 50°47' E 001°03'611.1
2018-Feb-11 13:01N 50°50' E 001°10'611.1
2018-Feb-11 12:29N 50°54' E 001°17'510.9
2018-Feb-11 12:00N 50°58' E 001°22'510.4
2018-Feb-11 11:31N 51°02' E 001°28'5 9.6
2018-Feb-11 11:00N 51°06' E 001°33'5 9.2
2018-Feb-11 10:30N 51°09' E 001°38'5 9.4
2018-Feb-11 10:01N 51°12' E 001°44'5 9.5
2018-Feb-11 09:31N 51°16' E 001°48'5 9.8
2018-Feb-11 09:00N 51°20' E 001°52'510.1
2018-Feb-11 08:30N 51°25' E 001°56'510.3
2018-Feb-11 08:00N 51°29' E 002°01'510.5
2018-Feb-11 07:31N 51°33' E 002°07'510.6
2018-Feb-11 07:01N 51°36' E 002°13'610.9
2018-Feb-11 06:30N 51°40' E 002°19'511.0
2018-Feb-11 06:01N 51°44' E 002°25'611.1
2018-Feb-11 05:28N 51°49' E 002°32'42 9.2
2018-Feb-11 00:52N 52°04' E 003°36'4 9.8
2018-Feb-11 00:30N 52°03' E 003°42'510.2
2018-Feb-11 00:00N 52°03' E 003°50'4 8.4
2018-Feb-10 23:30N 52°01' E 003°57'611.1
2018-Feb-10 23:00N 51°59' E 004°05'1 3.0
2018-Feb-10 22:30N 51°58' E 004°07'0 0.0
2018-Feb-10 21:59N 51°58' E 004°07'0 0.0
2018-Feb-10 21:29N 51°58' E 004°07'0 0.0
2018-Feb-10 20:59N 51°58' E 004°07'0 0.0
2018-Feb-10 20:29N 51°58' E 004°07'0 0.0
2018-Feb-10 19:59N 51°58' E 004°07'0 0.0
2018-Feb-10 19:29N 51°58' E 004°07'0 0.0
2018-Feb-10 18:59N 51°58' E 004°07'0 0.0
2018-Feb-10 18:29N 51°58' E 004°07'0 0.0
2018-Feb-10 17:59N 51°58' E 004°07'0 0.0
2018-Feb-10 17:29N 51°58' E 004°07'0 0.0
2018-Feb-10 16:59N 51°58' E 004°07'0 0.0
2018-Feb-10 16:29N 51°58' E 004°07'0 0.0
2018-Feb-10 15:59N 51°58' E 004°07'0 0.0
2018-Feb-10 15:29N 51°58' E 004°07'0 0.0
2018-Feb-10 14:59N 51°58' E 004°07'0 0.0
2018-Feb-10 14:29N 51°58' E 004°07'0 0.0
2018-Feb-10 13:59N 51°58' E 004°07'0 0.0
2018-Feb-10 13:29N 51°58' E 004°07'0 0.0
2018-Feb-10 12:59N 51°58' E 004°07'0 0.0
2018-Feb-10 12:29N 51°58' E 004°07'0 0.0
2018-Feb-10 11:59N 51°58' E 004°07'0 0.0
2018-Feb-10 11:29N 51°58' E 004°07'0 0.0
2018-Feb-10 10:59N 51°58' E 004°07'0 0.0
2018-Feb-10 10:29N 51°58' E 004°07'0 0.0
2018-Feb-10 09:59N 51°58' E 004°07'0 0.0
2018-Feb-10 09:29N 51°58' E 004°07'0 0.0
2018-Feb-10 08:59N 51°58' E 004°07'0 0.0
2018-Feb-10 08:29N 51°58' E 004°07'0 0.0
2018-Feb-10 07:59N 51°58' E 004°07'0 0.0
2018-Feb-10 07:29N 51°58' E 004°07'0 0.0
2018-Feb-10 06:59N 51°58' E 004°07'0 0.0
2018-Feb-10 06:29N 51°58' E 004°07'0 0.0
2018-Feb-10 05:59N 51°58' E 004°07'0 0.0
2018-Feb-10 05:29N 51°58' E 004°07'0 0.0
2018-Feb-10 04:59N 51°58' E 004°07'0 0.0
2018-Feb-10 04:29N 51°58' E 004°07'0 0.0
2018-Feb-10 03:59N 51°58' E 004°07'0 0.0
2018-Feb-10 03:29N 51°58' E 004°07'0 0.0
2018-Feb-10 02:59N 51°58' E 004°07'0 0.0
2018-Feb-10 02:29N 51°58' E 004°07'0 0.0
2018-Feb-10 01:59N 51°58' E 004°07'0 0.0
2018-Feb-10 01:29N 51°58' E 004°07'0 0.0
2018-Feb-10 00:59N 51°58' E 004°07'0 0.0
2018-Feb-10 00:29N 51°58' E 004°07'0 0.0
2018-Feb-09 23:59N 51°58' E 004°07'0 0.0
2018-Feb-09 23:29N 51°58' E 004°07'0 0.0
2018-Feb-09 22:59N 51°58' E 004°07'0 0.0
2018-Feb-09 22:44N 51°58' E 004°07'1 0.0
2018-Feb-08 01:29N 51°58' E 004°08'0 0.0
2018-Feb-08 00:59N 51°58' E 004°08'0 0.0
2018-Feb-08 00:29N 51°58' E 004°08'0 0.0
2018-Feb-07 23:59N 51°58' E 004°08'0 0.0
2018-Feb-07 23:29N 51°58' E 004°08'0 0.0
2018-Feb-07 22:59N 51°58' E 004°08'0 0.0
2018-Feb-07 22:29N 51°58' E 004°08'0 0.0
2018-Feb-07 21:59N 51°58' E 004°08'0 0.0
2018-Feb-07 21:29N 51°58' E 004°08'0 0.0
2018-Feb-07 09:29N 51°58' E 004°08'0 0.0
2018-Feb-07 08:59N 51°58' E 004°08'0 0.0
2018-Feb-07 08:29N 51°58' E 004°08'0 0.0
2018-Feb-07 07:59N 51°58' E 004°08'0 0.0
2018-Feb-07 07:29N 51°58' E 004°08'0 0.0
2018-Feb-07 06:59N 51°58' E 004°08'0 0.0
2018-Feb-07 06:29N 51°58' E 004°08'0 0.0
2018-Feb-07 05:59N 51°58' E 004°08'0 0.0
2018-Feb-07 05:29N 51°58' E 004°08'0 0.0
2018-Feb-07 04:59N 51°58' E 004°08'0 0.0
2018-Feb-07 04:29N 51°58' E 004°08'0 0.0
2018-Feb-07 03:56N 51°58' E 004°08'0 0.0
2018-Feb-07 03:29N 51°58' E 004°08'0 0.0
2018-Feb-07 02:59N 51°58' E 004°08'0 0.0
2018-Feb-07 02:29N 51°58' E 004°08'0 0.0
2018-Feb-07 01:59N 51°58' E 004°08'0 0.0
2018-Feb-07 01:29N 51°58' E 004°08'0 0.0
2018-Feb-07 00:59N 51°58' E 004°08'0 0.0
2018-Feb-07 00:29N 51°58' E 004°08'0 0.0
2018-Feb-06 23:59N 51°58' E 004°08'0 0.0
2018-Feb-06 23:29N 51°58' E 004°08'0 0.0
2018-Feb-06 22:59N 51°58' E 004°08'0 0.0
2018-Feb-06 22:29N 51°58' E 004°08'0 0.0
2018-Feb-06 21:59N 51°58' E 004°08'0 0.0
2018-Feb-06 21:29N 51°58' E 004°08'0 0.0
2018-Feb-06 20:59N 51°58' E 004°08'0 0.0
2018-Feb-06 20:29N 51°58' E 004°08'0 0.0
2018-Feb-06 19:59N 51°58' E 004°08'0 0.0
2018-Feb-06 19:29N 51°58' E 004°08'0 0.0
2018-Feb-06 18:59N 51°58' E 004°08'0 0.0
2018-Feb-06 18:29N 51°58' E 004°08'0 0.0
2018-Feb-06 17:59N 51°58' E 004°08'0 0.0
2018-Feb-06 17:29N 51°58' E 004°08'0 0.0
2018-Feb-06 16:59N 51°58' E 004°08'0 0.0
2018-Feb-06 16:29N 51°58' E 004°08'0 0.0
2018-Feb-06 15:59N 51°58' E 004°08'0 0.0
2018-Feb-06 15:29N 51°58' E 004°08'0 0.0
2018-Feb-06 14:59N 51°58' E 004°08'0 0.0
2018-Feb-06 14:29N 51°58' E 004°08'0 0.0
2018-Feb-06 13:59N 51°58' E 004°08'0 0.0
2018-Feb-06 13:29N 51°58' E 004°08'0 0.0
2018-Feb-06 12:59N 51°58' E 004°08'0 0.0
2018-Feb-06 12:29N 51°58' E 004°08'0 0.0
2018-Feb-06 12:00N 51°58' E 004°08'0 0.9
2018-Feb-06 11:30N 51°58' E 004°07'3 6.9
2018-Feb-06 11:00N 51°59' E 004°02'5 9.2
2018-Feb-06 10:30N 52°00' E 003°55'5 9.4
2018-Feb-06 10:00N 52°01' E 003°47'5 9.5
2018-Feb-06 09:30N 52°06' E 003°46'4 8.7
2018-Feb-06 09:00N 52°10' E 003°43'1 1.0
2018-Feb-06 08:29N 52°10' E 003°42'0 0.1
2018-Feb-06 07:59N 52°10' E 003°42'0 0.1
2018-Feb-06 07:05N 52°10' E 003°42'0 0.1
2018-Feb-06 06:59N 52°10' E 003°42'0 0.0
2018-Feb-06 06:29N 52°10' E 003°42'0 0.0
2018-Feb-06 05:47N 52°10' E 003°42'0 0.0
2018-Feb-06 05:02N 52°10' E 003°42'0 0.3
2018-Feb-06 04:41N 52°10' E 003°42'0 0.3
2018-Feb-06 04:29N 52°10' E 003°42'0 0.4
2018-Feb-06 03:59N 52°10' E 003°42'0 0.1
2018-Feb-06 03:26N 52°10' E 003°42'0 0.1
2018-Feb-06 02:59N 52°10' E 003°42'0 0.0
2018-Feb-06 02:29N 52°10' E 003°42'0 0.0
2018-Feb-06 01:59N 52°10' E 003°42'0 0.0
2018-Feb-06 01:29N 52°10' E 003°42'0 0.0
2018-Feb-06 00:59N 52°10' E 003°42'0 0.0
2018-Feb-06 00:29N 52°10' E 003°42'0 0.0
2018-Feb-05 23:59N 52°10' E 003°42'0 0.0
2018-Feb-05 23:26N 52°10' E 003°42'0 0.0
2018-Feb-05 22:56N 52°10' E 003°42'0 0.1
2018-Feb-05 22:26N 52°10' E 003°42'0 0.4
2018-Feb-05 21:59N 52°10' E 003°42'0 0.2
2018-Feb-05 21:23N 52°10' E 003°42'0 0.0
2018-Feb-05 20:41N 52°10' E 003°42'0 0.0
2018-Feb-05 20:26N 52°10' E 003°42'0 0.0
2018-Feb-05 19:56N 52°10' E 003°42'0 0.0
2018-Feb-05 19:26N 52°10' E 003°42'0 0.0
2018-Feb-05 18:56N 52°10' E 003°42'0 0.0
2018-Feb-05 18:29N 52°10' E 003°42'0 0.0
2018-Feb-05 17:17N 52°10' E 003°42'0 0.1
2018-Feb-05 16:59N 52°10' E 003°42'0 0.5
2018-Feb-05 16:29N 52°10' E 003°42'0 0.4
2018-Feb-05 15:50N 52°10' E 003°42'0 0.0
2018-Feb-05 15:29N 52°10' E 003°42'0 0.0
2018-Feb-05 14:59N 52°10' E 003°42'0 0.0
2018-Feb-05 14:29N 52°10' E 003°42'0 0.0
2018-Feb-05 13:59N 52°10' E 003°42'0 0.0
2018-Feb-05 13:29N 52°10' E 003°42'0 0.0
2018-Feb-05 12:59N 52°10' E 003°42'0 0.0
2018-Feb-05 12:29N 52°10' E 003°42'0 0.0
2018-Feb-05 11:56N 52°10' E 003°42'0 0.0
2018-Feb-05 11:29N 52°10' E 003°42'0 0.1
2018-Feb-05 10:59N 52°10' E 003°42'0 0.1
2018-Feb-05 10:29N 52°10' E 003°42'0 0.5
2018-Feb-05 09:59N 52°10' E 003°42'0 0.2
2018-Feb-05 09:20N 52°10' E 003°42'0 0.1
2018-Feb-05 08:56N 52°10' E 003°42'0 0.0
2018-Feb-05 08:29N 52°10' E 003°42'0 0.0
2018-Feb-05 07:59N 52°10' E 003°42'0 0.0
2018-Feb-05 07:26N 52°10' E 003°42'0 0.1
2018-Feb-05 06:56N 52°10' E 003°42'0 0.0
2018-Feb-05 06:29N 52°10' E 003°42'0 0.0
2018-Feb-05 05:23N 52°10' E 003°42'0 0.1
2018-Feb-05 04:50N 52°10' E 003°42'0 0.6
2018-Feb-05 04:29N 52°10' E 003°42'0 0.3
2018-Feb-05 03:59N 52°10' E 003°42'0 0.2
2018-Feb-05 03:26N 52°10' E 003°42'0 0.1
2018-Feb-05 02:53N 52°10' E 003°42'0 0.0
2018-Feb-05 02:29N 52°10' E 003°42'0 0.0
2018-Feb-05 01:59N 52°10' E 003°42'0 0.0
2018-Feb-05 01:29N 52°10' E 003°42'0 0.0
2018-Feb-05 00:59N 52°10' E 003°42'0 0.0
2018-Feb-05 00:29N 52°10' E 003°42'0 0.0
2018-Feb-04 23:59N 52°10' E 003°42'0 0.1
2018-Feb-04 23:29N 52°10' E 003°42'0 0.0
2018-Feb-04 22:53N 52°10' E 003°42'0 0.1
2018-Feb-04 22:29N 52°10' E 003°42'0 0.0
2018-Feb-04 21:59N 52°10' E 003°42'0 0.0
2018-Feb-04 21:29N 52°10' E 003°42'0 0.0
2018-Feb-04 20:59N 52°10' E 003°42'0 0.3
2018-Feb-04 19:59N 52°10' E 003°42'0 0.1
2018-Feb-04 19:17N 52°10' E 003°42'0 0.3
2018-Feb-04 18:47N 52°10' E 003°42'0 0.3
2018-Feb-04 18:26N 52°10' E 003°42'0 0.1
2018-Feb-04 15:26N 52°10' E 003°42'0 0.1
2018-Feb-04 14:56N 52°10' E 003°42'0 0.0
2018-Feb-04 14:29N 52°10' E 003°42'0 0.0
2018-Feb-04 13:59N 52°10' E 003°42'0 0.0
2018-Feb-04 13:29N 52°10' E 003°42'0 0.0
2018-Feb-04 12:56N 52°10' E 003°42'0 0.0
2018-Feb-04 12:29N 52°10' E 003°42'0 0.0
2018-Feb-04 11:59N 52°10' E 003°42'0 0.0
2018-Feb-04 11:29N 52°10' E 003°42'0 0.0
2018-Feb-04 09:56N 52°10' E 003°42'0 0.0
2018-Feb-04 08:59N 52°10' E 003°42'0 0.8
2018-Feb-04 08:25N 52°10' E 003°42'3 6.7
2018-Feb-04 08:01N 52°12' E 003°45'510.3
2018-Feb-04 07:30N 52°17' E 003°47'611.2
2018-Feb-04 07:01N 52°23' E 003°49'511.0
2018-Feb-04 06:31N 52°28' E 003°50'17811.9
2018-Feb-03 15:37N 55°15' E 005°34'212.3
2018-Feb-03 15:29N 55°17' E 005°35'612.3
2018-Feb-03 15:00N 55°22' E 005°38'  

Dump ship's entire track history